sensor_id;sensor_type;location;lat;lon;timestamp;P1;durP1;ratioP1;P2;durP2;ratioP2
44212;SDS011;29882;46.356;17.798;2022-11-20T12:17:20;32.45;;;23.25;;
44212;SDS011;29882;46.356;17.798;2022-11-20T12:19:48;34.72;;;24.08;;
44212;SDS011;29882;46.356;17.798;2022-11-20T12:25:32;32.85;;;22.35;;
44212;SDS011;29882;46.356;17.798;2022-11-20T12:28:11;34.95;;;23.67;;
44212;SDS011;29882;46.356;17.798;2022-11-20T12:37:11;33.00;;;23.08;;
44212;SDS011;29882;46.356;17.798;2022-11-20T12:39:49;35.38;;;24.38;;
44212;SDS011;29882;46.356;17.798;2022-11-20T12:42:40;33.20;;;23.58;;
44212;SDS011;29882;46.356;17.798;2022-11-20T12:45:42;35.42;;;24.85;;
44212;SDS011;29882;46.356;17.798;2022-11-20T13:01:25;41.28;;;28.42;;
44212;SDS011;29882;46.356;17.798;2022-11-20T13:07:03;43.03;;;30.00;;
44212;SDS011;29882;46.356;17.798;2022-11-20T13:09:36;44.90;;;30.90;;
44212;SDS011;29882;46.356;17.798;2022-11-20T13:20:28;50.80;;;32.75;;
44212;SDS011;29882;46.356;17.798;2022-11-20T13:22:58;46.20;;;31.58;;
44212;SDS011;29882;46.356;17.798;2022-11-20T13:25:36;49.65;;;33.70;;
44212;SDS011;29882;46.356;17.798;2022-11-20T13:30:37;52.42;;;34.28;;
44212;SDS011;29882;46.356;17.798;2022-11-20T13:33:31;49.35;;;32.38;;
44212;SDS011;29882;46.356;17.798;2022-11-20T13:36:04;47.72;;;31.75;;
44212;SDS011;29882;46.356;17.798;2022-11-20T13:38:54;46.45;;;32.13;;
44212;SDS011;29882;46.356;17.798;2022-11-20T13:44:14;44.95;;;30.33;;
44212;SDS011;29882;46.356;17.798;2022-11-20T13:46:57;46.03;;;32.88;;
44212;SDS011;29882;46.356;17.798;2022-11-20T13:49:26;49.38;;;33.75;;
44212;SDS011;29882;46.356;17.798;2022-11-20T13:52:01;46.33;;;30.95;;
44212;SDS011;29882;46.356;17.798;2022-11-20T13:58:27;51.58;;;34.05;;
44212;SDS011;29882;46.356;17.798;2022-11-20T14:00:51;48.67;;;33.20;;
44212;SDS011;29882;46.356;17.798;2022-11-20T14:03:26;51.60;;;34.28;;
44212;SDS011;29882;46.356;17.798;2022-11-20T14:06:26;49.50;;;33.72;;
44212;SDS011;29882;46.356;17.798;2022-11-20T14:08:54;52.65;;;35.47;;
44212;SDS011;29882;46.356;17.798;2022-11-20T14:11:26;56.30;;;36.65;;
44212;SDS011;29882;46.356;17.798;2022-11-20T14:13:56;54.25;;;35.80;;
44212;SDS011;29882;46.356;17.798;2022-11-20T14:16:32;55.15;;;34.90;;
44212;SDS011;29882;46.356;17.798;2022-11-20T14:21:48;58.67;;;38.03;;
44212;SDS011;29882;46.356;17.798;2022-11-20T14:24:20;58.40;;;37.20;;
44212;SDS011;29882;46.356;17.798;2022-11-20T14:26:50;59.38;;;36.72;;
44212;SDS011;29882;46.356;17.798;2022-11-20T14:29:19;54.97;;;37.67;;
44212;SDS011;29882;46.356;17.798;2022-11-20T14:31:53;58.53;;;37.83;;
44212;SDS011;29882;46.356;17.798;2022-11-20T14:34:23;60.50;;;37.72;;
44212;SDS011;29882;46.356;17.798;2022-11-20T14:36:59;59.20;;;37.55;;
44212;SDS011;29882;46.356;17.798;2022-11-20T14:39:36;61.20;;;39.58;;
44212;SDS011;29882;46.356;17.798;2022-11-20T14:42:14;61.00;;;39.17;;
44212;SDS011;29882;46.356;17.798;2022-11-20T14:44:43;63.50;;;40.42;;
44212;SDS011;29882;46.356;17.798;2022-11-20T14:47:15;62.75;;;39.08;;
44212;SDS011;29882;46.356;17.798;2022-11-20T14:49:46;58.85;;;38.03;;
44212;SDS011;29882;46.356;17.798;2022-11-20T14:52:18;59.90;;;39.88;;
44212;SDS011;29882;46.356;17.798;2022-11-20T14:54:52;62.65;;;39.35;;
44212;SDS011;29882;46.356;17.798;2022-11-20T14:57:30;60.55;;;39.88;;
44212;SDS011;29882;46.356;17.798;2022-11-20T15:02:43;64.50;;;37.92;;
44212;SDS011;29882;46.356;17.798;2022-11-20T15:05:12;60.60;;;39.20;;
44212;SDS011;29882;46.356;17.798;2022-11-20T15:07:42;63.33;;;40.30;;
44212;SDS011;29882;46.356;17.798;2022-11-20T15:12:46;63.90;;;41.58;;
44212;SDS011;29882;46.356;17.798;2022-11-20T15:15:39;61.35;;;41.08;;
44212;SDS011;29882;46.356;17.798;2022-11-20T15:18:13;70.47;;;44.72;;
44212;SDS011;29882;46.356;17.798;2022-11-20T15:20:43;69.18;;;43.15;;
44212;SDS011;29882;46.356;17.798;2022-11-20T15:23:11;66.10;;;42.53;;
44212;SDS011;29882;46.356;17.798;2022-11-20T15:25:40;79.03;;;52.72;;
44212;SDS011;29882;46.356;17.798;2022-11-20T15:28:18;69.13;;;46.53;;
44212;SDS011;29882;46.356;17.798;2022-11-20T15:30:46;69.10;;;44.63;;
44212;SDS011;29882;46.356;17.798;2022-11-20T15:33:15;72.35;;;45.83;;
44212;SDS011;29882;46.356;17.798;2022-11-20T15:35:43;69.85;;;43.50;;
44212;SDS011;29882;46.356;17.798;2022-11-20T15:38:11;68.53;;;43.13;;
44212;SDS011;29882;46.356;17.798;2022-11-20T15:40:39;69.25;;;42.85;;
44212;SDS011;29882;46.356;17.798;2022-11-20T15:43:06;68.55;;;43.33;;
44212;SDS011;29882;46.356;17.798;2022-11-20T15:45:46;72.03;;;45.38;;
44212;SDS011;29882;46.356;17.798;2022-11-20T15:48:24;67.82;;;42.58;;
44212;SDS011;29882;46.356;17.798;2022-11-20T15:51:15;64.85;;;42.80;;
44212;SDS011;29882;46.356;17.798;2022-11-20T15:54:00;68.70;;;42.10;;
44212;SDS011;29882;46.356;17.798;2022-11-20T15:56:28;66.13;;;41.13;;
44212;SDS011;29882;46.356;17.798;2022-11-20T15:58:56;67.25;;;42.75;;
44212;SDS011;29882;46.356;17.798;2022-11-20T16:01:24;77.90;;;47.38;;
44212;SDS011;29882;46.356;17.798;2022-11-20T16:03:51;76.43;;;49.80;;
44212;SDS011;29882;46.356;17.798;2022-11-20T16:06:19;82.63;;;54.38;;
44212;SDS011;29882;46.356;17.798;2022-11-20T16:08:46;83.32;;;49.88;;
44212;SDS011;29882;46.356;17.798;2022-11-20T16:11:14;78.65;;;50.17;;
44212;SDS011;29882;46.356;17.798;2022-11-20T16:13:43;81.00;;;49.72;;
44212;SDS011;29882;46.356;17.798;2022-11-20T16:16:30;83.32;;;51.65;;
44212;SDS011;29882;46.356;17.798;2022-11-20T16:19:00;79.22;;;51.55;;
44212;SDS011;29882;46.356;17.798;2022-11-20T16:21:28;67.03;;;41.72;;
44212;SDS011;29882;46.356;17.798;2022-11-20T16:23:58;67.90;;;42.88;;
44212;SDS011;29882;46.356;17.798;2022-11-20T16:26:27;70.43;;;45.08;;
44212;SDS011;29882;46.356;17.798;2022-11-20T16:28:55;69.63;;;44.80;;
44212;SDS011;29882;46.356;17.798;2022-11-20T16:31:22;71.68;;;45.63;;
44212;SDS011;29882;46.356;17.798;2022-11-20T16:33:50;67.22;;;42.20;;
44212;SDS011;29882;46.356;17.798;2022-11-20T16:36:19;59.35;;;36.90;;
44212;SDS011;29882;46.356;17.798;2022-11-20T16:38:51;51.83;;;33.05;;
44212;SDS011;29882;46.356;17.798;2022-11-20T16:41:20;52.95;;;33.92;;
44212;SDS011;29882;46.356;17.798;2022-11-20T16:43:49;51.50;;;33.63;;
44212;SDS011;29882;46.356;17.798;2022-11-20T16:46:19;54.38;;;34.75;;
44212;SDS011;29882;46.356;17.798;2022-11-20T16:51:30;62.30;;;36.42;;
44212;SDS011;29882;46.356;17.798;2022-11-20T16:54:01;59.13;;;36.72;;
44212;SDS011;29882;46.356;17.798;2022-11-20T16:56:29;54.85;;;34.25;;
44212;SDS011;29882;46.356;17.798;2022-11-20T16:58:58;53.35;;;32.17;;
44212;SDS011;29882;46.356;17.798;2022-11-20T17:01:26;55.65;;;35.05;;
44212;SDS011;29882;46.356;17.798;2022-11-20T17:03:56;51.60;;;33.63;;
44212;SDS011;29882;46.356;17.798;2022-11-20T17:06:27;57.38;;;35.30;;
44212;SDS011;29882;46.356;17.798;2022-11-20T17:09:00;61.03;;;38.00;;
44212;SDS011;29882;46.356;17.798;2022-11-20T17:11:27;68.40;;;39.90;;
44212;SDS011;29882;46.356;17.798;2022-11-20T17:13:55;65.50;;;40.65;;
44212;SDS011;29882;46.356;17.798;2022-11-20T17:16:26;72.82;;;39.92;;
44212;SDS011;29882;46.356;17.798;2022-11-20T17:18:54;77.13;;;41.85;;
44212;SDS011;29882;46.356;17.798;2022-11-20T17:21:29;70.70;;;40.72;;
44212;SDS011;29882;46.356;17.798;2022-11-20T17:24:00;69.90;;;40.50;;
44212;SDS011;29882;46.356;17.798;2022-11-20T17:26:32;67.43;;;40.88;;
44212;SDS011;29882;46.356;17.798;2022-11-20T17:29:02;71.25;;;42.88;;
44212;SDS011;29882;46.356;17.798;2022-11-20T17:31:32;71.72;;;43.55;;
44212;SDS011;29882;46.356;17.798;2022-11-20T17:34:02;69.43;;;42.13;;
44212;SDS011;29882;46.356;17.798;2022-11-20T17:36:30;67.72;;;39.13;;
44212;SDS011;29882;46.356;17.798;2022-11-20T17:38:59;68.32;;;38.88;;
44212;SDS011;29882;46.356;17.798;2022-11-20T17:41:27;61.45;;;38.22;;
44212;SDS011;29882;46.356;17.798;2022-11-20T17:43:56;63.42;;;37.97;;
44212;SDS011;29882;46.356;17.798;2022-11-20T17:46:26;61.63;;;39.05;;
44212;SDS011;29882;46.356;17.798;2022-11-20T17:48:55;60.03;;;39.08;;
44212;SDS011;29882;46.356;17.798;2022-11-20T17:51:27;68.22;;;41.20;;
44212;SDS011;29882;46.356;17.798;2022-11-20T17:53:58;72.13;;;41.20;;
44212;SDS011;29882;46.356;17.798;2022-11-20T17:56:33;61.42;;;40.60;;
44212;SDS011;29882;46.356;17.798;2022-11-20T17:59:20;63.20;;;40.72;;
44212;SDS011;29882;46.356;17.798;2022-11-20T18:01:47;63.00;;;40.00;;
44212;SDS011;29882;46.356;17.798;2022-11-20T18:04:15;67.57;;;43.28;;
44212;SDS011;29882;46.356;17.798;2022-11-20T18:06:43;70.40;;;42.78;;
44212;SDS011;29882;46.356;17.798;2022-11-20T18:09:10;69.95;;;43.22;;
44212;SDS011;29882;46.356;17.798;2022-11-20T18:11:40;67.50;;;42.05;;
44212;SDS011;29882;46.356;17.798;2022-11-20T18:14:12;72.88;;;42.78;;
44212;SDS011;29882;46.356;17.798;2022-11-20T18:17:03;71.70;;;43.25;;
44212;SDS011;29882;46.356;17.798;2022-11-20T18:19:34;69.75;;;44.10;;
44212;SDS011;29882;46.356;17.798;2022-11-20T18:22:13;69.57;;;42.63;;
44212;SDS011;29882;46.356;17.798;2022-11-20T18:24:42;82.43;;;52.97;;
44212;SDS011;29882;46.356;17.798;2022-11-20T18:27:15;70.13;;;44.50;;
44212;SDS011;29882;46.356;17.798;2022-11-20T18:29:44;68.43;;;44.03;;
44212;SDS011;29882;46.356;17.798;2022-11-20T18:32:14;73.55;;;44.97;;
44212;SDS011;29882;46.356;17.798;2022-11-20T18:34:42;69.55;;;45.13;;
44212;SDS011;29882;46.356;17.798;2022-11-20T18:37:10;76.10;;;47.58;;
44212;SDS011;29882;46.356;17.798;2022-11-20T18:39:41;72.88;;;46.97;;
44212;SDS011;29882;46.356;17.798;2022-11-20T18:42:12;83.40;;;50.92;;
44212;SDS011;29882;46.356;17.798;2022-11-20T18:45:00;74.70;;;47.63;;
44212;SDS011;29882;46.356;17.798;2022-11-20T18:47:31;74.70;;;46.45;;
44212;SDS011;29882;46.356;17.798;2022-11-20T18:52:33;73.05;;;45.83;;
44212;SDS011;29882;46.356;17.798;2022-11-20T18:55:05;73.88;;;48.42;;
44212;SDS011;29882;46.356;17.798;2022-11-20T18:57:33;69.75;;;45.20;;
44212;SDS011;29882;46.356;17.798;2022-11-20T19:00:02;70.10;;;45.50;;
44212;SDS011;29882;46.356;17.798;2022-11-20T19:02:35;69.40;;;45.13;;
44212;SDS011;29882;46.356;17.798;2022-11-20T19:05:12;72.68;;;45.60;;
44212;SDS011;29882;46.356;17.798;2022-11-20T19:07:41;72.20;;;46.03;;
44212;SDS011;29882;46.356;17.798;2022-11-20T19:10:09;72.35;;;46.03;;
